Stormwatcher's Retreat Logo




                  Temp     Hi    Low   Out    Dew  Wind  Wind   Wind    Hi    Hi   Wind   Heat    THW   THSW                Rain  Solar   Solar Hi Solar   UV    UV    Hi     Heat    Cool    In     In    In     In     In   In Air          Wind  Wind    ISS   Arc.
  Date    Time     Out   Temp   Temp   Hum    Pt. Speed   Dir    Run Speed   Dir  Chill  Index  Index  Index   Bar    Rain  Rate   Rad.  Energy    Rad.  Index  Dose   UV     D-D     D-D    Temp   Hum    Dew   Heat    EMC Density     ET   Samp   Tx   Recept  Int.
------------------------------------------------------------------------------------------------------------------------------------------------------------------------------------------------------------------------------------------------------------------------
 1/24/22 12:10a   49.7   49.9   49.7    76   42.4   7.0     E   1.17  16.0   ENE   46.8   49.5   46.6   43.2  30.253  0.00  0.00     0     0.00      0     0.0  0.00   0.0   0.106   0.000   70.7    47   49.5   68.9   8.75  .0748    0.000   202    7    100.0   10 
 1/24/22 12:20a   49.7   49.7   49.6    76   42.4   7.0     E   1.17  12.0    SE   46.8   49.5   46.6   43.2  30.254  0.00  0.00     0     0.00      0     0.0  0.00   0.0   0.106   0.000   70.7    47   49.5   68.9   8.75  .0748    0.000   203    7    100.0   10 
 1/24/22 12:30a   49.6   49.7   49.6    76   42.3   7.0     E   1.17  12.0   ENE   46.7   49.4   46.5   43.1  30.251  0.00  0.00     0     0.00      0     0.0  0.00   0.0   0.107   0.000   70.6    47   49.4   68.8   8.75  .0748    0.000   204    7    100.0   10 
 1/24/22 12:40a   49.4   49.6   49.4    76   42.1   8.0     E   1.33  15.0   ESE   45.8   49.2   45.6   42.4  30.245  0.00  0.00     0     0.00      0     0.0  0.00   0.0   0.108   0.000   70.6    47   49.4   68.8   8.75  .0748    0.000   204    7    100.0   10 
 1/24/22 12:50a   49.5   49.5   49.3    75   41.9   8.0     E   1.33  13.0   ENE   45.9   49.3   45.7   42.4  30.246  0.00  0.00     0     0.00      0     0.0  0.00   0.0   0.108   0.000   70.5    47   49.3   68.6   8.75  .0748    0.000   203    7    100.0   10 
 1/24/22  1:00a   49.5   49.6   49.5    74   41.6   6.0     E   1.00  12.0   ESE   47.1   49.2   46.8   43.3  30.243  0.00  0.00     0     0.00      0     0.0  0.00   0.0   0.108   0.000   70.4    47   49.2   68.5   8.75  .0748    0.001   203    7    100.0   10 
 1/24/22  1:10a   49.6   49.6   49.4    73   41.3   6.0     E   1.00  14.0   ESE   47.2   49.3   46.9   43.4  30.239  0.00  0.00     0     0.00      0     0.0  0.00   0.0   0.107   0.000   70.4    47   49.2   68.5   8.75  .0748    0.000   202    7    100.0   10 
 1/24/22  1:20a   49.5   49.6   49.5    74   41.6   6.0     E   1.00  12.0   ESE   47.1   49.2   46.8   43.3  30.240  0.00  0.00     0     0.00      0     0.0  0.00   0.0   0.108   0.000   70.3    47   49.1   68.4   8.75  .0748    0.000   204    7    100.0   10 
 1/24/22  1:30a   49.5   49.6   49.5    73   41.2   6.0     E   1.00  11.0   ESE   47.1   49.2   46.8   43.3  30.243  0.00  0.00     0     0.00      0     0.0  0.00   0.0   0.108   0.000   70.2    47   49.0   68.3   8.75  .0748    0.000   202    7    100.0   10 
 1/24/22  1:40a   49.3   49.5   49.2    73   41.0   6.0     E   1.00  11.0   ESE   46.9   49.0   46.6   43.1  30.240  0.00  0.00     0     0.00      0     0.0  0.00   0.0   0.109   0.000   70.1    47   48.9   68.1   8.75  .0748    0.000   204    7    100.0   10 
 1/24/22  1:50a   49.5   49.6   49.3    72   40.8   4.0     E   0.67   8.0   NNE   48.3   49.2   48.0   44.5  30.242  0.00  0.00     0     0.00      0     0.0  0.00   0.0   0.108   0.000   70.1    47   48.9   68.1   8.75  .0748    0.000   203    7    100.0   10 
 1/24/22  2:00a   49.4   49.6   49.4    72   40.7   3.0     E   0.50   7.0   ESE   49.0   49.1   48.7   45.2  30.244  0.00  0.00     0     0.00      0     0.0  0.00   0.0   0.108   0.000   70.1    47   48.9   68.1   8.75  .0748    0.001   202    7    100.0   10 
 1/24/22  2:10a   49.3   49.4   49.3    72   40.7   5.0     E   0.83   8.0   ENE   47.4   49.0   47.1   43.6  30.244  0.00  0.00     0     0.00      0     0.0  0.00   0.0   0.109   0.000   70.0    47   48.8   68.0   8.75  .0749    0.000   201    7    100.0   10 
 1/24/22  2:20a   49.2   49.3   49.2    72   40.6   2.0     E   0.33   7.0     E   49.2   48.8   48.8   45.3  30.248  0.00  0.00     0     0.00      0     0.0  0.00   0.0   0.110   0.000   69.9    47   48.7   67.9   8.75  .0749    0.000   201    7    100.0   10 
 1/24/22  2:30a   49.2   49.2   49.0    72   40.6   3.0     E   0.50   7.0   ESE   48.7   48.8   48.3   44.8  30.251  0.00  0.00     0     0.00      0     0.0  0.00   0.0   0.110   0.000   69.9    47   48.7   67.9   8.75  .0749    0.000   204    7    100.0   10 
 1/24/22  2:40a   48.8   49.2   48.8    72   40.2   3.0     E   0.50   8.0     E   48.3   48.4   47.9   44.4  30.254  0.00  0.00     0     0.00      0     0.0  0.00   0.0   0.113   0.000   69.8    47   48.7   67.9   8.75  .0749    0.000   199    7    100.0   10 
 1/24/22  2:50a   48.5   48.8   48.5    73   40.2   4.0     E   0.67  10.0   ENE   47.2   48.1   46.8   43.3  30.249  0.00  0.00     0     0.00      0     0.0  0.00   0.0   0.115   0.000   69.7    47   48.6   67.8   8.76  .0749    0.000   202    7    100.0   10 
 1/24/22  3:00a   48.4   48.6   48.4    74   40.5   2.0     E   0.33   6.0     E   48.4   48.1   48.1   44.6  30.252  0.00  0.00     0     0.00      0     0.0  0.00   0.0   0.115   0.000   69.7    47   48.6   67.8   8.76  .0749    0.001   203    7    100.0   10 
 1/24/22  3:10a   48.2   48.5   48.2    72   39.6   2.0   ESE   0.33   6.0     E   48.2   47.8   47.8   44.2  30.249  0.00  0.00     0     0.00      0     0.0  0.00   0.0   0.117   0.000   69.6    47   48.5   67.7   8.76  .0749    0.000   204    7    100.0   10 
 1/24/22  3:20a   48.5   48.5   48.1    73   40.2   2.0   ENE   0.33   6.0     E   48.5   48.1   48.1   44.6  30.246  0.00  0.00     0     0.00      0     0.0  0.00   0.0   0.115   0.000   69.5    47   48.4   67.6   8.76  .0750    0.000   202    7    100.0   10 
 1/24/22  3:30a   48.3   48.5   48.2    73   40.0   2.0     E   0.33   7.0   ESE   48.3   47.9   47.9   44.4  30.244  0.00  0.00     0     0.00      0     0.0  0.00   0.0   0.116   0.000   69.4    47   48.3   67.6   8.76  .0750    0.000   201    7    100.0   10 
 1/24/22  3:40a   48.2   48.3   48.1    71   39.2   3.0     E   0.50   7.0   ESE   47.6   47.8   47.2   43.6  30.238  0.00  0.00     0     0.00      0     0.0  0.00   0.0   0.117   0.000   69.4    47   48.3   67.6   8.76  .0750    0.000   205    7    100.0   10 
 1/24/22  3:50a   48.0   48.2   48.0    72   39.4   4.0     E   0.67   8.0    SE   46.6   47.6   46.2   42.6  30.236  0.00  0.00     0     0.00      0     0.0  0.00   0.0   0.118   0.000   69.3    47   48.2   67.5   8.76  .0750    0.000   203    7    100.0   10 
 1/24/22  4:00a   47.5   48.0   47.5    73   39.3   4.0     E   0.67   8.0   ESE   46.0   47.1   45.6   42.0  30.240  0.00  0.00     0     0.00      0     0.0  0.00   0.0   0.122   0.000   69.2    47   48.1   67.4   8.77  .0750    0.001   201    7    100.0   10 
 1/24/22  4:10a   47.3   47.6   47.3    74   39.4   5.0     E   0.83  11.0   ESE   45.1   47.0   44.8   41.2  30.235  0.00  0.00     0     0.00      0     0.0  0.00   0.0   0.123   0.000   69.2    47   48.1   67.4   8.77  .0750    0.000   201    7    100.0   10 
 1/24/22  4:20a   47.0   47.3   47.0    73   38.8   6.0     E   1.00  10.0    SE   44.1   46.6   43.7   40.1  30.232  0.00  0.00     0     0.00      0     0.0  0.00   0.0   0.125   0.000   69.1    47   48.0   67.4   8.77  .0750    0.000   202    7    100.0   10 
 1/24/22  4:30a   47.2   47.3   47.0    73   39.0   6.0     E   1.00  11.0   ESE   44.3   46.8   43.9   40.3  30.224  0.00  0.00     0     0.00      0     0.0  0.00   0.0   0.124   0.000   69.0    47   47.9   67.3   8.77  .0750    0.000   202    7    100.0   10 
 1/24/22  4:40a   47.5   47.5   47.2    71   38.6   5.0     E   0.83  10.0   ESE   45.3   47.0   44.8   41.2  30.220  0.00  0.00     0     0.00      0     0.0  0.00   0.0   0.122   0.000   69.0    47   47.9   67.3   8.77  .0750    0.000   202    7    100.0   10 
 1/24/22  4:50a   47.6   47.6   47.4    71   38.7   2.0     E   0.33   7.0     E   47.6   47.1   47.1   43.5  30.225  0.00  0.00     0     0.00      0     0.0  0.00   0.0   0.121   0.000   68.9    47   47.8   67.2   8.77  .0750    0.000   204    7    100.0   10 
 1/24/22  5:00a   47.2   47.6   47.2    72   38.6   1.0     E   0.17   3.0   ENE   47.2   46.8   46.8   43.2  30.227  0.00  0.00     0     0.00      0     0.0  0.00   0.0   0.124   0.000   68.8    47   47.7   67.1   8.77  .0750    0.001   203    7    100.0   10 
 1/24/22  5:10a   46.6   47.2   46.6    71   37.7   1.0   ENE   0.17   3.0     E   46.6   46.1   46.1   42.5  30.235  0.00  0.00     0     0.00      0     0.0  0.00   0.0   0.128   0.000   68.8    47   47.7   67.1   8.77  .0750    0.000   201    7    100.0   10 
 1/24/22  5:20a   46.5   46.6   46.4    72   38.0   3.0     E   0.50  10.0   ENE   45.8   46.1   45.4   41.8  30.234  0.00  0.00     0     0.00      0     0.0  0.00   0.0   0.128   0.000   68.7    47   47.6   67.0   8.78  .0751    0.000   202    7    100.0   10 
 1/24/22  5:30a   46.9   47.0   46.4    70   37.6   5.0     E   0.83  10.0   ESE   44.6   46.4   44.1   40.5  30.228  0.00  0.00     0     0.00      0     0.0  0.00   0.0   0.126   0.000   68.6    47   47.6   66.9   8.78  .0751    0.000   202    7    100.0   10 
 1/24/22  5:40a   46.9   47.1   46.9    70   37.6   5.0     E   0.83   9.0     E   44.6   46.4   44.1   40.5  30.233  0.00  0.00     0     0.00      0     0.0  0.00   0.0   0.126   0.000   68.6    47   47.6   66.9   8.78  .0751    0.000   202    7    100.0   10 
 1/24/22  5:50a   46.7   46.9   46.6    70   37.4   5.0     E   0.83   9.0   ENE   44.3   46.2   43.8   40.2  30.237  0.00  0.00     0     0.00      0     0.0  0.00   0.0   0.127   0.000   68.7    47   47.6   67.0   8.78  .0751    0.000   203    7    100.0   10 
 1/24/22  6:00a   46.9   46.9   46.7    70   37.6   5.0     E   0.83  11.0     E   44.6   46.4   44.1   40.5  30.232  0.00  0.00     0     0.00      0     0.0  0.00   0.0   0.126   0.000   68.9    47   47.8   67.2   8.77  .0750    0.001   202    7    100.0   10 
 1/24/22  6:10a   47.0   47.1   46.8    70   37.7   4.0     E   0.67   9.0    SE   45.4   46.5   44.9   41.3  30.234  0.00  0.00     0     0.00      0     0.0  0.00   0.0   0.125   0.000   69.2    47   48.1   67.4   8.77  .0750    0.000   203    7    100.0   10 
 1/24/22  6:20a   46.7   47.0   46.7    70   37.4   4.0     E   0.67   9.0   ESE   45.0   46.2   44.5   40.9  30.236  0.00  0.00     0     0.00      0     0.0  0.00   0.0   0.127   0.000   69.5    47   48.4   67.6   8.76  .0749    0.000   200    7    100.0   10 
 1/24/22  6:30a   46.5   46.7   46.4    71   37.6   5.0     E   0.83  10.0   ESE   44.1   46.0   43.6   40.0  30.234  0.00  0.00     0     0.00      0     0.0  0.00   0.0   0.128   0.000   69.8    46   48.1   67.8   8.65  .0749    0.000   203    7    100.0   10 
 1/24/22  6:40a   46.0   46.4   46.0    71   37.1   7.0     E   1.17  11.0   ENE   42.4   45.5   41.9   38.3  30.231  0.00  0.00     0     0.00      0     0.0  0.00   0.0   0.132   0.000   70.0    46   48.3   67.9   8.65  .0749    0.000   203    7    100.0   10 
 1/24/22  6:50a   45.9   46.0   45.7    71   37.0   6.0     E   1.00  12.0   ENE   42.8   45.4   42.3   38.7  30.238  0.00  0.00     0     0.00      0     0.0  0.00   0.0   0.133   0.000   70.1    46   48.4   68.0   8.65  .0749    0.000   204    7    100.0   10 
 1/24/22  7:00a   46.2   46.2   45.8    70   37.0   5.0     E   0.83   9.0   ESE   43.7   45.7   43.2   39.5  30.239  0.00  0.00     0     0.00      0     0.0  0.00   0.0   0.131   0.000   70.3    46   48.5   68.3   8.64  .0748    0.001   204    7    100.0   10 
 1/24/22  7:10a   46.6   46.6   46.2    71   37.7   4.0     E   0.67   8.0     E   44.9   46.1   44.4   40.8  30.238  0.00  0.00     0     0.00      0     0.0  0.00   0.0   0.128   0.000   70.5    46   48.7   68.6   8.64  .0748    0.000   204    7    100.0   10 
 1/24/22  7:20a   46.4   46.6   46.4    70   37.1   4.0   ENE   0.67  10.0     E   44.7   45.9   44.2   40.6  30.232  0.00  0.00     0     0.00      0     0.0  0.00   0.0   0.129   0.000   70.7    46   48.9   68.8   8.64  .0747    0.000   204    7    100.0   10 
 1/24/22  7:30a   46.0   46.3   46.0    71   37.1   5.0     E   0.83  11.0   SSE   43.5   45.5   43.0   39.4  30.233  0.00  0.00     0     0.00      0     0.0  0.00   0.0   0.132   0.000   70.8    46   49.0   68.9   8.63  .0747    0.000   203    7    100.0   10 
 1/24/22  7:40a   45.6   46.0   45.6    72   37.1   6.0     E   1.00  12.0     E   42.4   45.1   41.9   38.3  30.228  0.00  0.00     1     0.01      5     0.0  0.00   0.0   0.135   0.000   70.9    46   49.1   69.1   8.63  .0747    0.000   202    7    100.0   10 
 1/24/22  7:50a   45.1   45.6   45.1    72   36.6   7.0     E   1.17  13.0   ESE   41.3   44.6   40.8   37.3  30.223  0.00  0.00     7     0.10      9     0.0  0.00   0.0   0.138   0.000   70.9    46   49.1   69.1   8.63  .0747    0.000   204    7    100.0   10 
 1/24/22  8:00a   45.0   45.2   44.9    72   36.5   6.0     E   1.00  12.0   ENE   41.7   44.5   41.2   37.8  30.224  0.00  0.00    12     0.17     14     0.0  0.00   0.0   0.139   0.000   71.0    46   49.2   69.2   8.63  .0747    0.001   202    7    100.0   10 
 1/24/22  8:10a   45.3   45.3   45.0    72   36.8   5.0     E   0.83  14.0     E   42.7   44.8   42.2   38.9  30.227  0.00  0.00    17     0.24     19     0.0  0.00   0.0   0.137   0.000   71.0    46   49.2   69.2   8.63  .0747    0.000   205    7    100.0   10 
 1/24/22  8:20a   45.9   45.9   45.3    70   36.7   4.0     E   0.67  10.0     E   44.1   45.4   43.6   40.4  30.233  0.00  0.00    25     0.36     32     0.0  0.00   0.0   0.133   0.000   71.1    46   49.3   69.3   8.63  .0747    0.000   201    7    100.0   10 
 1/24/22  8:30a   46.5   46.7   45.9    74   38.7   2.0   NNW   0.33   4.0   NNE   46.5   46.1   46.1   43.5  30.246  0.00  0.00    45     0.65     54     0.0  0.00   0.0   0.128   0.000   71.1    46   49.3   69.3   8.63  .0747    0.000   202    7    100.0   10 
 1/24/22  8:40a   46.5   46.5   46.3    76   39.3   1.0     N   0.17   4.0     S   46.5   46.2   46.2   44.0  30.240  0.00  0.00    63     0.90     65     0.0  0.00   0.0   0.128   0.000   71.2    46   49.4   69.5   8.63  .0747    0.000   204    7    100.0   10 
 1/24/22  8:50a   46.8   46.9   46.4    73   38.6   1.0    NE   0.17   5.0    NE   46.8   46.4   46.4   44.0  30.240  0.00  0.00    56     0.80     62     0.0  0.00   0.0   0.126   0.000   71.3    46   49.4   69.7   8.62  .0747    0.000   201    7    100.0   10 
 1/24/22  9:00a   47.1   47.2   46.8    68   37.1   2.0   NNE   0.33   5.0   ENE   47.1   46.5   46.5   45.8  30.244  0.00  0.00    36     0.52     40     0.0  0.00   0.0   0.124   0.000   71.3    46   49.4   69.7   8.62  .0747    0.001   203    7    100.0   10 
 1/24/22  9:10a   47.2   47.4   47.0    70   37.9   2.0    NE   0.33   6.0   ENE   47.2   46.7   46.7   48.8  30.250  0.00  0.00   126     1.81    195     0.0  0.00   0.0   0.124   0.000   71.3    46   49.4   69.7   8.62  .0747    0.000   203    7    100.0   10 
 1/24/22  9:20a   47.3   47.3   47.0    67   36.9   5.0   ENE   0.83  12.0     E   45.1   46.7   44.5   50.1  30.246  0.00  0.00   211     3.02    221     0.0  0.00   0.0   0.123   0.000   71.3    46   49.4   69.7   8.62  .0747    0.000   204    7    100.0   10 
 1/24/22  9:30a   47.2   47.3   47.1    67   36.8   6.0     E   1.00  11.0   ENE   44.3   46.6   43.7   50.1  30.239  0.00  0.00   236     3.38    246     0.0  0.00   0.0   0.124   0.000   71.2    46   49.4   69.5   8.63  .0747    0.000   204    7    100.0   10 
 1/24/22  9:40a   47.9   48.0   47.2    66   37.1   3.0     E   0.50   9.0   ENE   47.3   47.2   46.6   53.8  30.244  0.00  0.00   259     3.71    269     0.1  0.01   0.5   0.119   0.000   71.2    46   49.4   69.5   8.63  .0747    0.000   201    7    100.0   10 
 1/24/22  9:50a   49.0   49.0   47.9    64   37.3   4.0     E   0.67  11.0     E   47.7   48.4   47.1   54.9  30.246  0.00  0.00   282     4.04    301     0.5  0.04   0.5   0.111   0.000   71.1    46   49.3   69.3   8.63  .0747    0.000   203    7    100.0   10 
 1/24/22 10:00a   49.8   49.8   49.0    62   37.3   7.0     E   1.17  13.0   ENE   47.0   49.1   46.3   54.4  30.249  0.00  0.00   300     4.30    308     0.6  0.04   0.6   0.106   0.000   71.1    46   49.3   69.3   8.63  .0747    0.005   205    7    100.0   10 
 1/24/22 10:10a   50.9   50.9   49.9    59   37.1   4.0     E   0.67  11.0   ENE   49.9   50.0   49.0   57.8  30.251  0.00  0.00   318     4.56    327     0.6  0.04   0.7   0.098   0.000   71.0    46   49.2   69.2   8.63  .0747    0.000   204    7    100.0   10 
 1/24/22 10:20a   52.0   52.0   51.0    59   38.1   3.0    NE   0.50   7.0   ESE   51.9   51.0   50.9   60.2  30.252  0.00  0.00   337     4.83    345     0.7  0.05   0.8   0.090   0.000   71.1    46   49.3   69.3   8.63  .0747    0.000   203    7    100.0   10 
 1/24/22 10:30a   52.2   52.5   52.0    61   39.1   2.0     N   0.33   3.0   ENE   52.2   51.2   51.2   60.9  30.259  0.00  0.00   353     5.06    360     0.8  0.06   0.8   0.089   0.000   71.2    46   49.4   69.5   8.63  .0747    0.000   203    7    100.0   10 
 1/24/22 10:40a   52.1   52.2   51.7    61   39.1   1.0   WNW   0.17   3.0    NW   52.1   51.1   51.1   61.1  30.268  0.00  0.00   367     5.26    374     0.9  0.06   0.9   0.090   0.000   71.3    46   49.4   69.7   8.62  .0747    0.000   204    7    100.0   10 
 1/24/22 10:50a   52.7   52.9   52.1    69   42.8   1.0    NW   0.17   4.0    NE   52.7   52.0   52.0   62.2  30.267  0.00  0.00   379     5.43    388     1.0  0.07   1.0   0.085   0.000   71.2    46   49.4   69.5   8.63  .0747    0.000   201    7    100.0   10 
 1/24/22 11:00a   52.8   53.0   52.6    61   39.7   2.0     E   0.33   4.0   ESE   52.8   51.8   51.8   62.1  30.261  0.00  0.00   390     5.59    403     1.0  0.07   1.1   0.085   0.000   71.2    46   49.4   69.5   8.63  .0747    0.007   203    7    100.0   10 
 1/24/22 11:10a   54.0   54.0   52.9    63   41.7   1.0   ENE   0.17   3.0   ENE   54.0   52.9   52.9   63.7  30.263  0.00  0.00   410     5.88    417     1.1  0.08   1.1   0.076   0.000   71.3    46   49.4   69.7   8.62  .0747    0.000   203    7    100.0   10 
 1/24/22 11:20a   54.2   54.2   54.0    59   40.2   1.0   NNW   0.17   3.0   WNW   54.2   52.9   52.9   63.8  30.261  0.00  0.00   419     6.01    427     1.2  0.09   1.2   0.075   0.000   71.3    46   49.4   69.7   8.62  .0747    0.000   205    7    100.0   10 
 1/24/22 11:30a   54.9   55.1   54.3    67   44.1   2.0     N   0.33   4.0     N   54.9   54.0   54.0   65.2  30.259  0.00  0.00   425     6.09    431     1.2  0.09   1.2   0.070   0.000   71.3    45   48.9   69.6   8.45  .0747    0.000   202    7    100.0   10 
 1/24/22 11:40a   54.1   54.8   54.0    72   45.3   2.0     N   0.33   4.0   NNW   54.1   53.5   53.5   64.4  30.251  0.00  0.00   419     6.01    432     1.3  0.09   1.3   0.076   0.000   71.4    45   48.9   69.7   8.45  .0747    0.000   204    7    100.0   10 
 1/24/22 11:50a   54.5   54.6   54.1    72   45.7   2.0   NNW   0.33   3.0     N   54.5   53.8   53.8   65.1  30.242  0.00  0.00   433     6.21    443     1.3  0.09   1.3   0.073   0.000   71.4    46   49.5   69.8   8.62  .0746    0.000   202    7    100.0   10 
 1/24/22 12:00p   54.8   54.8   54.0    69   44.8   2.0   NNW   0.33   4.0   NNW   54.8   54.0   54.0   65.5  30.241  0.00  0.00   441     6.32    448     1.3  0.09   1.3   0.071   0.000   71.5    46   49.6   69.9   8.62  .0746    0.009   204    7    100.0   10 
 1/24/22 12:10p   54.2   55.0   54.2    70   44.6   3.0     N   0.50   5.0   NNE   54.2   53.5   53.5   65.0  30.238  0.00  0.00   443     6.35    448     1.3  0.09   1.4   0.075   0.000   71.6    46   49.7   70.1   8.62  .0746    0.000   202    7    100.0   10 
 1/24/22 12:20p   54.7   54.7   54.1    70   45.1   3.0   NNE   0.50   5.0   ENE   54.7   53.9   53.9   65.4  30.234  0.00  0.00   442     6.34    446     1.4  0.10   1.4   0.072   0.000   71.7    46   49.8   70.2   8.62  .0746    0.000   201    7    100.0   10 
 1/24/22 12:30p   54.6   55.1   54.6    72   45.8   3.0     N   0.50   5.0    NE   54.6   53.9   53.9   65.4  30.231  0.00  0.00   438     6.28    441     1.4  0.10   1.4   0.072   0.000   71.8    46   49.9   70.4   8.61  .0745    0.000   202    7    100.0   10 
 1/24/22 12:40p   54.7   54.8   54.5    73   46.2   4.0     N   0.67   6.0     N   54.3   54.1   53.7   65.2  30.224  0.00  0.00   435     6.24    441     1.4  0.10   1.4   0.072   0.000   71.8    46   49.9   70.4   8.61  .0745    0.000   203    7    100.0   10 
 1/24/22 12:50p   55.1   55.1   54.7    73   46.6   3.0     N   0.50   7.0     N   55.1   54.5   54.5   65.8  30.219  0.00  0.00   426     6.11    438     1.3  0.09   1.3   0.069   0.000   71.8    46   49.9   70.4   8.61  .0745    0.000   204    7    100.0   10 
 1/24/22  1:00p   56.1   56.1   55.1    70   46.4   3.0    NE   0.50   6.0    NE   56.1   55.3   55.3   67.1  30.216  0.00  0.00   435     6.24    441     1.3  0.09   1.3   0.062   0.000   72.0    47   50.7   70.8   8.75  .0745    0.009   203    7    100.0   10 
 1/24/22  1:10p   55.6   56.1   55.6    67   44.8   3.0     N   0.50   7.0   NNE   55.6   54.7   54.7   66.5  30.213  0.00  0.00   431     6.18    434     1.3  0.09   1.3   0.065   0.000   72.0    46   50.1   70.7   8.61  .0745    0.000   204    7    100.0   10 
 1/24/22  1:20p   54.8   55.6   54.8    70   45.2   4.0     N   0.67   8.0     N   54.4   54.0   53.6   65.4  30.210  0.00  0.00   425     6.09    431     1.3  0.09   1.3   0.071   0.000   72.1    46   50.2   70.8   8.61  .0744    0.000   204    7    100.0   10 
 1/24/22  1:30p   55.0   55.0   54.6    69   45.0   5.0   NNE   0.83   8.0     N   54.1   54.2   53.3   65.1  30.212  0.00  0.00   418     5.99    424     1.2  0.09   1.3   0.069   0.000   72.1    46   50.2   70.8   8.61  .0744    0.000   200    7    100.0   10 
 1/24/22  1:40p   55.7   55.7   54.9    67   44.9   5.0   NNE   0.83   9.0   NNE   54.9   54.8   54.0   65.9  30.206  0.00  0.00   410     5.88    415     1.2  0.09   1.2   0.065   0.000   72.2    46   50.3   71.0   8.61  .0744    0.000   202    7    100.0   10 
 1/24/22  1:50p   55.7   55.9   55.6    67   44.9   5.0     N   0.83   9.0     N   54.9   54.8   54.0   65.6  30.204  0.00  0.00   397     5.69    401     1.1  0.08   1.2   0.065   0.000   72.2    46   50.3   71.0   8.61  .0744    0.000   204    7    100.0   10 
 1/24/22  2:00p   55.3   55.7   55.2    68   44.9   6.0   NNE   1.00  10.0   NNE   54.0   54.4   53.1   64.6  30.204  0.00  0.00   387     5.55    394     1.1  0.08   1.1   0.067   0.000   72.2    46   50.3   71.0   8.61  .0744    0.009   203    7    100.0   10 
 1/24/22  2:10p   56.0   56.0   55.2    65   44.4   5.0   NNE   0.83   9.0   NNE   55.3   55.0   54.3   65.5  30.204  0.00  0.00   370     5.30    378     1.0  0.07   1.0   0.063   0.000   72.2    46   50.3   71.0   8.61  .0744    0.000   203    7    100.0   10 
 1/24/22  2:20p   56.0   56.4   55.9    66   44.8   5.0   NNE   0.83   8.0   NNE   55.3   55.0   54.3   65.1  30.203  0.00  0.00   354     5.07    360     0.9  0.06   0.9   0.063   0.000   72.3    46   50.4   71.1   8.60  .0744    0.000   201    7    100.0   10 
 1/24/22  2:30p   55.4   56.1   55.4    67   44.6   5.0     N   0.83   9.0   NNE   54.6   54.5   53.7   64.2  30.198  0.00  0.00   338     4.85    345     0.8  0.06   0.9   0.067   0.000   72.3    46   50.4   71.1   8.60  .0744    0.000   204    7    100.0   10 
 1/24/22  2:40p   55.0   55.3   54.8    70   45.4   6.0   NNE   1.00   9.0     N   53.6   54.2   52.8   63.0  30.196  0.00  0.00   322     4.62    332     0.8  0.06   0.8   0.069   0.000   72.3    46   50.4   71.1   8.60  .0744    0.000   203    7    100.0   10 
 1/24/22  2:50p   55.6   55.7   55.0    69   45.6   6.0   NNE   1.00  11.0   NNE   54.3   54.8   53.5   63.4  30.201  0.00  0.00   306     4.39    315     0.7  0.05   0.7   0.065   0.000   72.3    46   50.4   71.1   8.60  .0744    0.000   204    7    100.0   10 
 1/24/22  3:00p   55.3   55.8   55.3    68   44.9   7.0   NNE   1.17  13.0   NNE   53.6   54.4   52.7   61.8  30.207  0.00  0.00   286     4.10    301     0.6  0.04   0.6   0.067   0.000   72.4    47   51.0   71.4   8.75  .0744    0.008   201    7    100.0   10 
 1/24/22  3:10p   54.8   55.3   54.8    73   46.3   7.0   NNE   1.17  12.0     N   53.0   54.2   52.4   61.0  30.212  0.00  0.00   265     3.80    274     0.5  0.04   0.6   0.071   0.000   72.4    47   51.0   71.4   8.75  .0744    0.000   202    7    100.0   10 
 1/24/22  3:20p   54.6   54.8   54.5    75   46.8   6.0   NNE   1.00  12.0   NNE   53.1   54.1   52.6   54.5  30.207  0.00  0.00   240     3.44    251     0.3  0.02   0.5   0.072   0.000   72.5    47   51.1   71.5   8.75  .0743    0.000   202    7    100.0   10 
 1/24/22  3:30p   54.0   54.6   54.0    75   46.3   6.0   NNE   1.00  10.0   NNE   52.4   53.5   51.9   53.3  30.209  0.00  0.00   215     3.08    227     0.0  0.00   0.0   0.076   0.000   72.5    47   51.1   71.5   8.75  .0743    0.000   202    7    100.0   10 
 1/24/22  3:40p   54.5   54.5   53.7    71   45.3   5.0   NNE   0.83  11.0    NE   53.5   53.8   52.8   53.5  30.203  0.00  0.00   185     2.65    202     0.0  0.00   0.0   0.073   0.000   72.5    47   51.1   71.5   8.75  .0743    0.000   204    7    100.0   10 
 1/24/22  3:50p   53.7   54.7   53.7    71   44.5   5.0   NNE   0.83   9.0   NNE   52.5   53.0   51.8   51.9  30.198  0.00  0.00   161     2.31    169     0.0  0.00   0.0   0.078   0.000   72.5    47   51.1   71.5   8.75  .0743    0.000   202    7    100.0   10 
 1/24/22  4:00p   53.1   53.7   53.1    73   44.7   8.0   NNE   1.33  11.0     N   50.2   52.5   49.6   49.1  30.197  0.00  0.00   134     1.92    148     0.0  0.00   0.0   0.083   0.000   72.6    47   51.2   71.7   8.75  .0743    0.005   204    7    100.0   10 
 1/24/22  4:10p   52.9   53.1   52.9    75   45.2   7.0   NNE   1.17  11.0   NNE   50.7   52.4   50.2   49.2  30.198  0.00  0.00   106     1.52    116     0.0  0.00   0.0   0.084   0.000   72.6    47   51.2   71.7   8.75  .0743    0.000   204    7    100.0   10 
 1/24/22  4:20p   52.6   53.0   52.6    76   45.2   6.0   NNE   1.00  11.0   NNE   50.7   52.2   50.3   48.7  30.200  0.00  0.00    80     1.15     90     0.0  0.00   0.0   0.086   0.000   72.5    47   51.1   71.5   8.75  .0743    0.000   202    7    100.0   10 
 1/24/22  4:30p   52.7   53.0   52.6    76   45.3   5.0   NNE   0.83   9.0   ENE   51.4   52.3   51.0   49.0  30.197  0.00  0.00    61     0.87     70     0.0  0.00   0.0   0.085   0.000   72.5    47   51.1   71.5   8.75  .0743    0.000   202    7    100.0   10 
 1/24/22  4:40p   52.4   52.8   52.4    78   45.7   4.0   NNE   0.67   8.0   NNE   51.6   52.1   51.3   48.8  30.197  0.00  0.00    39     0.56     49     0.0  0.00   0.0   0.087   0.000   72.5    47   51.1   71.5   8.75  .0743    0.000   203    7    100.0   10 
 1/24/22  4:50p   51.7   52.4   51.7    79   45.4   5.0   NNE   0.83   9.0   NNE   50.2   51.5   50.0   47.3  30.197  0.00  0.00    28     0.40     32     0.0  0.00   0.0   0.092   0.000   72.5    47   51.1   71.5   8.75  .0743    0.000   202    7    100.0   10 
 1/24/22  5:00p   51.1   51.7   51.1    80   45.1   6.0   NNE   1.00  12.0   NNE   49.0   51.0   48.9   46.0  30.203  0.00  0.00    19     0.27     23     0.0  0.00   0.0   0.097   0.000   72.5    47   51.1   71.5   8.75  .0743    0.002   205    7    100.0   10 
 1/24/22  5:10p   50.8   51.2   50.8    80   44.9   5.0    NE   0.83   8.0   NNE   49.2   50.7   49.1   46.0  30.205  0.00  0.00    13     0.19     14     0.0  0.00   0.0   0.099   0.000   72.4    47   51.0   71.4   8.75  .0744    0.000   202    7    100.0   10 
 1/24/22  5:20p   50.0   50.8   50.0    80   44.1   4.0    NE   0.67   8.0   NNE   48.9   50.0   48.9   45.6  30.202  0.00  0.00     4     0.06      9     0.0  0.00   0.0   0.104   0.000   72.3    46   50.4   71.1   8.60  .0744    0.000   203    7    100.0   10 
 1/24/22  5:30p   49.4   50.0   49.4    81   43.8   4.0    NE   0.67   8.0     N   48.2   49.4   48.2   44.8  30.206  0.00  0.00     0     0.00      0     0.0  0.00   0.0   0.108   0.000   72.3    46   50.4   71.1   8.60  .0744    0.000   201    7    100.0   10 
 1/24/22  5:40p   49.0   49.4   48.9    82   43.7   3.0    NE   0.50   5.0    NE   48.5   49.0   48.5   45.1  30.206  0.00  0.00     0     0.00      0     0.0  0.00   0.0   0.111   0.000   72.3    46   50.4   71.1   8.60  .0744    0.000   203    7    100.0   10 
 1/24/22  5:50p   48.6   48.9   48.6    83   43.7   1.0    NE   0.17   2.0    NE   48.6   48.6   48.6   45.2  30.202  0.00  0.00     0     0.00      0     0.0  0.00   0.0   0.114   0.000   72.3    46   50.4   71.1   8.60  .0744    0.000   202    7    100.0   10 
 1/24/22  6:00p   48.1   48.6   48.1    83   43.2   2.0    NE   0.33   3.0   NNE   48.1   48.1   48.1   44.7  30.206  0.00  0.00     0     0.00      0     0.0  0.00   0.0   0.117   0.000   72.2    47   50.8   71.1   8.75  .0744    0.001   199    7    100.0   10 
 1/24/22  6:10p   47.6   48.1   47.6    83   42.7   0.0   ENE   0.00   2.0   ENE   47.6   47.5   47.5   44.1  30.206  0.00  0.00     0     0.00      0     0.0  0.00   0.0   0.121   0.000   72.2    47   50.8   71.1   8.75  .0744    0.000   202    7    100.0   10 
 1/24/22  6:20p   47.2   47.6   47.2    84   42.6   1.0    NE   0.17   3.0    NE   47.2   47.2   47.2   43.8  30.208  0.00  0.00     0     0.00      0     0.0  0.00   0.0   0.124   0.000   72.2    47   50.8   71.1   8.75  .0744    0.000   204    7    100.0   10 
 1/24/22  6:30p   46.8   47.2   46.8    85   42.5   1.0    NE   0.17   3.0     N   46.8   46.8   46.8   43.4  30.204  0.00  0.00     0     0.00      0     0.0  0.00   0.0   0.126   0.000   72.1    47   50.8   70.9   8.75  .0744    0.000   204    7    100.0   10 
 1/24/22  6:40p   46.1   46.8   46.1    85   41.8   1.0   ENE   0.17   2.0    NE   46.1   46.1   46.1   42.6  30.204  0.00  0.00     0     0.00      0     0.0  0.00   0.0   0.131   0.000   72.1    47   50.8   70.9   8.75  .0744    0.000   203    7    100.0   10 
 1/24/22  6:50p   46.0   46.1   46.0    86   42.0   1.0    NE   0.17   3.0    NE   46.0   46.0   46.0   42.6  30.203  0.00  0.00     0     0.00      0     0.0  0.00   0.0   0.132   0.000   72.1    47   50.8   70.9   8.75  .0744    0.000   202    7    100.0   10 
 1/24/22  7:00p   45.7   46.0   45.7    86   41.8   1.0   ENE   0.17   3.0   ENE   45.7   45.7   45.7   42.2  30.204  0.00  0.00     0     0.00      0     0.0  0.00   0.0   0.134   0.000   72.0    47   50.7   70.8   8.75  .0744    0.000   202    7    100.0   10 
 1/24/22  7:10p   45.6   45.8   45.6    85   41.4   1.0    NE   0.17   3.0   ENE   45.6   45.6   45.6   42.1  30.205  0.00  0.00     0     0.00      0     0.0  0.00   0.0   0.135   0.000   72.0    47   50.7   70.8   8.75  .0744    0.000   201    7    100.0   10 
 1/24/22  7:20p   45.8   45.8   45.5    87   42.2   1.0   NNE   0.17   3.0    NE   45.8   45.8   45.8   42.4  30.202  0.00  0.00     0     0.00      0     0.0  0.00   0.0   0.133   0.000   71.9    47   50.6   70.6   8.75  .0744    0.000   202    7    100.0   10 
 1/24/22  7:30p   46.7   46.7   45.8    88   43.3   1.0   NNW   0.17   2.0   NNW   46.7   46.8   46.8   43.4  30.201  0.00  0.00     0     0.00      0     0.0  0.00   0.0   0.127   0.000   71.8    47   50.5   70.5   8.75  .0744    0.000   203    7    100.0   10 
 1/24/22  7:40p   47.4   47.4   46.7    88   44.0   1.0    NW   0.17   3.0     W   47.4   47.5   47.5   44.2  30.202  0.00  0.00     0     0.00      0     0.0  0.00   0.0   0.122   0.000   71.8    47   50.5   70.5   8.75  .0745    0.000   204    7    100.0   10 
 1/24/22  7:50p   47.7   47.7   47.4    87   44.0   1.0    NW   0.17   3.0    NE   47.7   47.8   47.8   44.5  30.203  0.00  0.00     0     0.00      0     0.0  0.00   0.0   0.120   0.000   71.7    47   50.4   70.3   8.75  .0745    0.000   203    7    100.0   10 
 1/24/22  8:00p   47.5   47.7   47.5    87   43.8   2.0   NNW   0.33   4.0   NNW   47.5   47.6   47.6   44.2  30.203  0.00  0.00     0     0.00      0     0.0  0.00   0.0   0.122   0.000   71.6    47   50.3   70.2   8.75  .0745    0.000   201    7    100.0   10 
 1/24/22  8:10p   46.3   47.5   46.3    87   42.6   2.0   NNE   0.33   4.0     N   46.3   46.4   46.4   43.0  30.204  0.00  0.00     0     0.00      0     0.0  0.00   0.0   0.130   0.000   71.6    47   50.3   70.2   8.75  .0745    0.000   203    7    100.0   10 
 1/24/22  8:20p   45.2   46.2   45.2    87   41.6   2.0    NE   0.33   5.0    NE   45.2   45.2   45.2   41.7  30.204  0.00  0.00     0     0.00      0     0.0  0.00   0.0   0.137   0.000   71.5    47   50.2   70.0   8.75  .0745    0.000   204    7    100.0   10 
 1/24/22  8:30p   44.5   45.2   44.5    87   40.9   1.0    NE   0.17   4.0    NE   44.5   44.5   44.5   41.0  30.205  0.00  0.00     0     0.00      0     0.0  0.00   0.0   0.142   0.000   71.4    47   50.1   69.9   8.75  .0745    0.000   204    7    100.0   10 
 1/24/22  8:40p   44.5   44.6   44.5    87   40.9   1.0   NNE   0.17   4.0   NNE   44.5   44.5   44.5   41.0  30.203  0.00  0.00     0     0.00      0     0.0  0.00   0.0   0.142   0.000   71.3    47   50.0   69.8   8.75  .0745    0.000   203    7    100.0   10 
 1/24/22  8:50p   44.5   44.6   44.5    86   40.6   3.0   NNE   0.50   6.0   NNE   43.5   44.4   43.4   39.9  30.203  0.00  0.00     0     0.00      0     0.0  0.00   0.0   0.142   0.000   71.3    47   50.0   69.8   8.75  .0745    0.000   204    7    100.0   10 
 1/24/22  9:00p   44.8   44.8   44.5    86   40.9   1.0   NNE   0.17   5.0    NE   44.8   44.7   44.7   41.2  30.207  0.00  0.00     0     0.00      0     0.0  0.00   0.0   0.140   0.000   71.2    47   49.9   69.6   8.75  .0746    0.000   200    7    100.0   10 
 1/24/22  9:10p   45.2   45.2   44.7    87   41.6   2.0   NNE   0.33  11.0    NE   45.2   45.2   45.2   41.7  30.203  0.00  0.00     0     0.00      0     0.0  0.00   0.0   0.137   0.000   71.1    47   49.8   69.4   8.75  .0746    0.000   203    7    100.0   10 
 1/24/22  9:20p   46.8   46.8   45.2    87   43.1   3.0   ENE   0.50  10.0    SE   46.1   46.9   46.2   42.8  30.202  0.00  0.00     0     0.00      0     0.0  0.00   0.0   0.126   0.000   71.0    47   49.7   69.3   8.75  .0746    0.000   203    7    100.0   10 
 1/24/22  9:30p   48.2   48.2   46.8    84   43.6   4.0     E   0.67  10.0     E   46.8   48.2   46.8   43.4  30.203  0.00  0.00     0     0.00      0     0.0  0.00   0.0   0.117   0.000   70.9    47   49.7   69.2   8.75  .0746    0.000   205    7    100.0   10 
 1/24/22  9:40p   48.3   48.3   48.2    83   43.4   7.0   ENE   1.17  14.0   ENE   45.2   48.3   45.2   41.8  30.200  0.00  0.00     0     0.00      0     0.0  0.00   0.0   0.116   0.000   70.9    47   49.7   69.2   8.75  .0746    0.000   204    7    100.0   10 
 1/24/22  9:50p   49.0   49.0   48.3    82   43.7   9.0     E   1.50  14.0     E   44.7   49.0   44.7   41.6  30.195  0.00  0.00     0     0.00      0     0.0  0.00   0.0   0.111   0.000   70.8    47   49.6   69.0   8.75  .0746    0.000   202    7    100.0   10 
 1/24/22 10:00p   49.4   49.4   49.0    80   43.5   9.0     E   1.50  14.0   ENE   45.2   49.3   45.1   42.0  30.191  0.00  0.00     0     0.00      0     0.0  0.00   0.0   0.108   0.000   70.7    47   49.5   68.9   8.75  .0746    0.001   204    7    100.0   10 
 1/24/22 10:10p   49.6   49.6   49.3    78   43.0   9.0     E   1.50  16.0     E   45.4   49.5   45.3   42.2  30.188  0.00  0.00     0     0.00      0     0.0  0.00   0.0   0.107   0.000   70.6    47   49.4   68.8   8.75  .0746    0.000   205    7    100.0   10 
 1/24/22 10:20p   49.8   49.8   49.6    77   42.9   9.0     E   1.50  18.0     E   45.7   49.7   45.6   42.5  30.190  0.00  0.00     0     0.00      0     0.0  0.00   0.0   0.106   0.000   70.5    47   49.3   68.6   8.75  .0746    0.000   201    7    100.0   10 
 1/24/22 10:30p   49.8   49.9   49.7    75   42.2   9.0     E   1.50  15.0     E   45.7   49.6   45.5   42.4  30.192  0.00  0.00     0     0.00      0     0.0  0.00   0.0   0.106   0.000   70.5    47   49.3   68.6   8.75  .0746    0.000   204    7    100.0   10 
 1/24/22 10:40p   49.6   49.9   49.6    74   41.7   9.0     E   1.50  17.0   ESE   45.4   49.3   45.1   41.9  30.188  0.00  0.00     0     0.00      0     0.0  0.00   0.0   0.107   0.000   70.4    47   49.2   68.5   8.75  .0747    0.000   202    7    100.0   10 
 1/24/22 10:50p   49.5   49.6   49.3    73   41.2  10.0     E   1.67  14.0   ESE   44.7   49.2   44.4   41.3  30.189  0.00  0.00     0     0.00      0     0.0  0.00   0.0   0.108   0.000   70.4    47   49.2   68.5   8.75  .0747    0.000   205    7    100.0   10 
 1/24/22 11:00p   49.9   50.0   49.5    70   40.5  10.0     E   1.67  16.0   ENE   45.2   49.5   44.8   41.7  30.192  0.00  0.00     0     0.00      0     0.0  0.00   0.0   0.105   0.000   70.3    46   48.5   68.3   8.64  .0747    0.002   199    7    100.0   10 
 1/24/22 11:10p   49.7   50.0   49.7    69   39.9  10.0     E   1.67  15.0     E   44.9   49.3   44.5   41.3  30.196  0.00  0.00     0     0.00      0     0.0  0.00   0.0   0.106   0.000   70.2    46   48.4   68.2   8.65  .0747    0.000   202    7    100.0   10 
 1/24/22 11:20p   49.4   49.8   49.4    69   39.7  10.0     E   1.67  16.0     E   44.6   49.0   44.2   41.0  30.194  0.00  0.00     0     0.00      0     0.0  0.00   0.0   0.108   0.000   70.2    46   48.4   68.2   8.65  .0747    0.000   204    7    100.0   10 
 1/24/22 11:30p   48.7   49.5   48.7    71   39.7  11.0     E   1.83  17.0   ENE   43.3   48.3   42.9   39.8  30.196  0.00  0.00     0     0.00      0     0.0  0.00   0.0   0.113   0.000   70.1    46   48.4   68.0   8.65  .0747    0.000   203    7    100.0   10 
 1/24/22 11:40p   48.0   48.7   48.0    72   39.4  11.0     E   1.83  17.0   SSE   42.5   47.6   42.1   39.0  30.200  0.00  0.00     0     0.00      0     0.0  0.00   0.0   0.118   0.000   70.0    46   48.3   67.9   8.65  .0748    0.000   203    7    100.0   10 
 1/24/22 11:50p   48.1   48.1   47.9    71   39.1  12.0     E   2.00  24.0     E   42.1   47.6   41.6   38.6  30.200  0.00  0.00     0     0.00      0     0.0  0.00   0.0   0.117   0.000   70.0    46   48.3   67.9   8.65  .0748    0.000   202    7    100.0   10 
 1/25/22 12:00a   48.3   48.4   48.1    69   38.6  12.0     E   2.00  23.0     E   42.4   47.8   41.9   38.9  30.200  0.00  0.00     0     0.00      0     0.0  0.00   0.0   0.116   0.000   69.9    46   48.2   67.8   8.65  .0748    0.002   202    7    100.0   10 
 1/25/22 12:10a   48.3   48.4   48.3    69   38.6  12.0     E   2.00  18.0   ESE   42.4   47.8   41.9   38.9  30.200  0.00  0.00     0     0.00      0     0.0  0.00   0.0   0.116   0.000   69.8    46   48.1   67.8   8.65  .0748    0.000   203    7    100.0   10 
 1/25/22 12:20a   48.2   48.3   48.2    68   38.1  12.0     E   2.00  19.0    NE   42.2   47.6   41.6   38.6  30.201  0.00  0.00     0     0.00      0     0.0  0.00   0.0   0.117   0.000   69.8    46   48.1   67.8   8.65  .0748    0.000   201    7    100.0   10 
 1/25/22 12:30a   47.9   48.2   47.9    67   37.5  12.0     E   2.00  18.0     E   41.9   47.3   41.3   38.3  30.196  0.00  0.00     0     0.00      0     0.0  0.00   0.0   0.119   0.000   69.7    46   48.0   67.7   8.65  .0748    0.000   202    7    100.0   10 
 1/25/22 12:40a   47.5   47.9   47.4    68   37.5  12.0     E   2.00  20.0     E   41.5   46.9   40.9   37.9  30.193  0.00  0.00     0     0.00      0     0.0  0.00   0.0   0.122   0.000   69.6    46   47.9   67.6   8.65  .0748    0.000   202    7    100.0   10 
 1/25/22 12:50a   47.5   47.5   47.3    67   37.1  12.0     E   2.00  18.0     E   41.5   46.9   40.9   37.9  30.195  0.00  0.00     0     0.00      0     0.0  0.00   0.0   0.122   0.000   69.6    46   47.9   67.6   8.65  .0748    0.000   201    7    100.0   10 
 1/25/22  1:00a   47.1   47.5   47.1    68   37.1  12.0     E   2.00  20.0   ESE   41.0   46.5   40.4   37.4  30.197  0.00  0.00     0     0.00      0     0.0  0.00   0.0   0.124   0.000   69.5    46   47.8   67.6   8.65  .0749    0.003   203    7    100.0   10 
 1/25/22  1:10a   46.9   47.1   46.9    68   36.9  12.0     E   2.00  18.0     E   40.8   46.3   40.2   37.2  30.199  0.00  0.00     0     0.00      0     0.0  0.00   0.0   0.126   0.000   69.4    46   47.7   67.5   8.65  .0749    0.000   200    7    100.0   10 
 1/25/22  1:20a   47.2   47.2   47.0    66   36.4  12.0     E   2.00  21.0     E   41.1   46.5   40.4   37.4  30.201  0.00  0.00     0     0.00      0     0.0  0.00   0.0   0.124   0.000   69.3    46   47.6   67.4   8.65  .0749    0.000   200    7    100.0   10 
 1/25/22  1:30a   47.3   47.4   47.2    65   36.1  12.0     E   2.00  23.0     E   41.2   46.6   40.5   37.5  30.200  0.00  0.00     0     0.00      0     0.0  0.00   0.0   0.123   0.000   69.2    46   47.5   67.3   8.65  .0749    0.000   202    7    100.0   10 
 1/25/22  1:40a   47.1   47.4   47.1    66   36.3  11.0     E   1.83  19.0   ENE   41.4   46.4   40.7   37.6  30.205  0.00  0.00     0     0.00      0     0.0  0.00   0.0   0.124   0.000   69.2    46   47.5   67.3   8.65  .0749    0.000   202    7    100.0   10 
 1/25/22  1:50a   46.7   47.1   46.6    67   36.3  10.0     E   1.67  17.0   ESE   41.4   46.1   40.8   37.5  30.205  0.00  0.00     0     0.00      0     0.0  0.00   0.0   0.127   0.000   69.1    46   47.4   67.3   8.65  .0749    0.000   204    7    100.0   10 
 1/25/22  2:00a   46.4   46.7   46.4    68   36.4  11.0     E   1.83  17.0    SE   40.6   45.8   40.0   36.9  30.207  0.00  0.00     0     0.00      0     0.0  0.00   0.0   0.129   0.000   69.0    46   47.4   67.2   8.65  .0750    0.003   204    7    100.0   10 
 1/25/22  2:10a   46.3   46.4   46.3    68   36.3  11.0     E   1.83  19.0     E   40.5   45.7   39.9   36.8  30.210  0.00  0.00     0     0.00      0     0.0  0.00   0.0   0.130   0.000   69.0    46   47.4   67.2   8.65  .0750    0.000   204    7    100.0   10 
 1/25/22  2:20a   46.3   46.4   46.3    68   36.3  11.0     E   1.83  18.0   ENE   40.5   45.7   39.9   36.8  30.210  0.00  0.00     0     0.00      0     0.0  0.00   0.0   0.130   0.000   68.9    46   47.3   67.1   8.65  .0750    0.000   204    7    100.0   10 
 1/25/22  2:30a   46.2   46.4   46.2    68   36.2  12.0   ENE   2.00  19.0   ESE   39.9   45.6   39.3   36.3  30.211  0.00  0.00     0     0.00      0     0.0  0.00   0.0   0.131   0.000   68.8    46   47.2   67.0   8.65  .0750    0.000   202    7    100.0   10 
 1/25/22  2:40a   46.6   46.6   46.1    67   36.2  12.0     E   2.00  20.0   ESE   40.4   46.0   39.8   36.8  30.209  0.00  0.00     0     0.00      0     0.0  0.00   0.0   0.128   0.000   68.7    46   47.1   66.9   8.65  .0750    0.000   204    7    100.0   10 
 1/25/22  2:50a   46.4   46.6   46.3    67   36.0  12.0     E   2.00  22.0     E   40.2   45.8   39.6   36.6  30.209  0.00  0.00     0     0.00      0     0.0  0.00   0.0   0.129   0.000   68.7    46   47.1   66.9   8.65  .0750    0.000   201    7    100.0   10 
 1/25/22  3:00a   46.5   46.6   46.3    66   35.7  12.0   ENE   2.00  21.0   ENE   40.3   45.8   39.6   36.6  30.204  0.00  0.00     0     0.00      0     0.0  0.00   0.0   0.128   0.000   68.6    46   47.0   66.8   8.65  .0750    0.003   204    7    100.0   10 
 1/25/22  3:10a   46.6   46.6   46.5    66   35.8  12.0     E   2.00  21.0   ENE   40.4   45.9   39.7   36.7  30.198  0.00  0.00     0     0.00      0     0.0  0.00   0.0   0.128   0.000   68.5    46   46.9   66.8   8.65  .0750    0.000   202    7    100.0   10 
 1/25/22  3:20a   46.6   46.6   46.4    65   35.5  12.0     E   2.00  20.0     E   40.4   45.9   39.7   36.7  30.197  0.00  0.00     0     0.00      0     0.0  0.00   0.0   0.128   0.000   68.4    46   46.8   66.7   8.65  .0750    0.000   204    7    100.0   10 
 1/25/22  3:30a   46.2   46.6   46.2    66   35.5  11.0   ENE   1.83  24.0     E   40.4   45.5   39.7   36.6  30.197  0.00  0.00     0     0.00      0     0.0  0.00   0.0   0.131   0.000   68.3    46   46.7   66.6   8.65  .0751    0.000   203    7    100.0   10 
 1/25/22  3:40a   46.3   46.3   46.1    66   35.6  11.0     E   1.83  21.0     E   40.5   45.6   39.8   36.7  30.201  0.00  0.00     0     0.00      0     0.0  0.00   0.0   0.130   0.000   68.2    46   46.6   66.5   8.65  .0751    0.000   202    7    100.0   10 
 1/25/22  3:50a   46.3   46.3   46.2    65   35.2  11.0     E   1.83  17.0     E   40.5   45.6   39.8   36.7  30.196  0.00  0.00     0     0.00      0     0.0  0.00   0.0   0.130   0.000   68.2    46   46.6   66.5   8.65  .0751    0.000   205    7    100.0   10 
 1/25/22  4:00a   46.0   46.3   46.0    66   35.3  11.0     E   1.83  17.0   ESE   40.2   45.3   39.5   36.4  30.201  0.00  0.00     0     0.00      0     0.0  0.00   0.0   0.132   0.000   68.1    46   46.5   66.4   8.65  .0751    0.003   202    7    100.0   10 
 1/25/22  4:10a   45.5   46.0   45.4    67   35.2   8.0     E   1.33  15.0   ENE   41.2   44.9   40.6   37.1  30.207  0.00  0.00     0     0.00      0     0.0  0.00   0.0   0.135   0.000   68.0    46   46.4   66.3   8.65  .0751    0.000   200    7    100.0   10 
 1/25/22  4:20a   45.6   45.7   45.5    67   35.3  10.0   ENE   1.67  17.0   ESE   40.2   45.0   39.6   36.3  30.205  0.00  0.00     0     0.00      0     0.0  0.00   0.0   0.135   0.000   67.9    46   46.3   66.2   8.65  .0751    0.000   202    7    100.0   10 
 1/25/22  4:30a   45.2   45.7   45.2    67   34.9  10.0     E   1.67  22.0     E   39.7   44.6   39.1   35.8  30.197  0.00  0.00     0     0.00      0     0.0  0.00   0.0   0.137   0.000   67.9    46   46.3   66.2   8.65  .0751    0.000   202    7    100.0   10 
 1/25/22  4:40a   45.1   45.3   45.1    68   35.2  11.0     E   1.83  18.0     E   39.1   44.5   38.5   35.4  30.195  0.00  0.00     0     0.00      0     0.0  0.00   0.0   0.138   0.000   67.8    46   46.3   66.1   8.65  .0751    0.000   204    7    100.0   10 
 1/25/22  4:50a   44.9   45.1   44.9    68   35.0  11.0   ENE   1.83  21.0     E   38.9   44.3   38.3   35.1  30.187  0.00  0.00     0     0.00      0     0.0  0.00   0.0   0.140   0.000   67.7    46   46.2   66.0   8.65  .0751    0.000   203    7    100.0   10 
 1/25/22  5:00a   44.9   45.0   44.9    68   35.0  12.0   ENE   2.00  21.0     E   38.5   44.3   37.9   34.8  30.188  0.00  0.00     0     0.00      0     0.0  0.00   0.0   0.140   0.000   67.6    46   46.1   65.9   8.65  .0752    0.002   204    7    100.0   10 
 1/25/22  5:10a   44.8   44.9   44.8    68   34.9  12.0   ENE   2.00  21.0   ENE   38.4   44.2   37.8   34.7  30.188  0.00  0.00     0     0.00      0     0.0  0.00   0.0   0.140   0.000   67.6    46   46.1   65.9   8.65  .0752    0.000   201    7    100.0   10 
 1/25/22  5:20a   44.9   45.0   44.8    68   35.0  12.0     E   2.00  22.0   ENE   38.5   44.3   37.9   34.8  30.188  0.00  0.00     0     0.00      0     0.0  0.00   0.0   0.140   0.000   67.5    46   46.0   65.8   8.65  .0752    0.000   203    7    100.0   10 
 1/25/22  5:30a   44.5   44.9   44.4    68   34.6  12.0     E   2.00  21.0     E   38.0   43.9   37.4   34.3  30.179  0.00  0.00     0     0.00      0     0.0  0.00   0.0   0.142   0.000   67.4    46   45.9   65.6   8.65  .0752    0.000   204    7    100.0   10 
 1/25/22  5:40a   44.5   44.6   44.4    67   34.2  12.0   ENE   2.00  21.0    NE   38.0   43.9   37.4   34.3  30.178  0.00  0.00     0     0.00      0     0.0  0.00   0.0   0.142   0.000   67.3    46   45.8   65.5   8.65  .0752    0.000   205    7    100.0   10 
 1/25/22  5:50a   44.8   44.9   44.5    66   34.1  12.0   ENE   2.00  21.0     E   38.4   44.1   37.7   34.6  30.182  0.00  0.00     0     0.00      0     0.0  0.00   0.0   0.140   0.000   67.4    46   45.9   65.6   8.65  .0752    0.000   202    7    100.0   10 
 1/25/22  6:00a   44.6   44.9   44.6    67   34.3  11.0   ENE   1.83  21.0   ENE   38.5   44.0   37.9   34.7  30.187  0.00  0.00     0     0.00      0     0.0  0.00   0.0   0.142   0.000   67.6    45   45.5   65.8   8.50  .0752    0.002   202    7    100.0   10 
 1/25/22  6:10a   44.4   44.6   44.4    67   34.1   9.0   ENE   1.50  21.0   ENE   39.3   43.8   38.7   35.2  30.191  0.00  0.00     0     0.00      0     0.0  0.00   0.0   0.143   0.000   67.9    45   45.8   66.1   8.49  .0751    0.000   202    7    100.0   10 
 1/25/22  6:20a   44.2   44.4   44.2    67   33.9   7.0   ENE   1.17  19.0     S   40.2   43.6   39.6   35.9  30.199  0.00  0.00     0     0.00      0     0.0  0.00   0.0   0.144   0.000   68.1    45   45.9   66.3   8.49  .0751    0.000   203    7    100.0   10 
 1/25/22  6:30a   44.3   44.3   44.2    66   33.7   5.0   ENE   0.83  15.0     E   41.5   43.6   40.8   37.0  30.199  0.00  0.00     0     0.00      0     0.0  0.00   0.0   0.144   0.000   68.5    45   46.3   66.6   8.48  .0750    0.000   203    7    100.0   10 
 1/25/22  6:40a   43.9   44.3   43.9    67   33.6   6.0   ENE   1.00  16.0    NE   40.4   43.3   39.8   36.0  30.200  0.00  0.00     0     0.00      0     0.0  0.00   0.0   0.147   0.000   68.8    45   46.6   66.9   8.47  .0750    0.000   203    7    100.0   10 
 1/25/22  6:50a   43.9   44.0   43.9    68   34.0   5.0   ENE   0.83  11.0   ENE   41.1   43.3   40.5   36.7  30.202  0.00  0.00     0     0.00      0     0.0  0.00   0.0   0.147   0.000   69.0    45   46.8   67.1   8.47  .0750    0.000   202    7    100.0   10 
 1/25/22  7:00a   43.7   43.9   43.6    67   33.5   4.0   ENE   0.67  14.0     E   41.6   43.1   41.0   37.2  30.202  0.00  0.00     0     0.00      0     0.0  0.00   0.0   0.148   0.000   69.2    45   46.9   67.2   8.47  .0749    0.002   204    7    100.0   10 
 1/25/22  7:10a   44.0   44.0   43.7    66   33.4   5.0   ENE   0.83  18.0   ENE   41.2   43.3   40.5   36.7  30.203  0.00  0.00     0     0.00      0     0.0  0.00   0.0   0.146   0.000   69.4    45   47.1   67.4   8.46  .0749    0.000   201    7    100.0   10 
 1/25/22  7:20a   44.1   44.1   44.0    65   33.1   6.0   ENE   1.00  14.0   NNE   40.6   43.4   39.9   36.1  30.203  0.00  0.00     0     0.00      0     0.0  0.00   0.0   0.145   0.000   69.6    45   47.3   67.5   8.46  .0749    0.000   202    7    100.0   10 
 1/25/22  7:30a   43.8   44.1   43.8    66   33.2   6.0   ENE   1.00  16.0     E   40.3   43.1   39.6   35.8  30.206  0.00  0.00     0     0.00      0     0.0  0.00   0.0   0.147   0.000   69.6    45   47.3   67.5   8.46  .0749    0.000   202    7    100.0   10 
 1/25/22  7:40a   43.8   43.8   43.7    65   32.8   5.0   ENE   0.83  12.0    NE   41.0   43.1   40.3   36.5  30.207  0.00  0.00     3     0.04      5     0.0  0.00   0.0   0.147   0.000   69.7    45   47.4   67.6   8.46  .0749    0.000   202    7    100.0   10 
 1/25/22  7:50a   43.9   44.1   43.8    64   32.5   5.0   ENE   0.83  15.0     E   41.1   43.2   40.4   36.7  30.209  0.00  0.00     8     0.11     11     0.0  0.00   0.0   0.147   0.000   69.7    45   47.4   67.6   8.46  .0749    0.000   204    7    100.0   10 
 1/25/22  8:00a   43.9   44.0   43.8    64   32.5   6.0   ENE   1.00  15.0   ENE   40.4   43.2   39.7   36.1  30.207  0.00  0.00    12     0.17     12     0.0  0.00   0.0   0.147   0.000   69.7    45   47.4   67.6   8.46  .0749    0.001   202    7    100.0   10 
 1/25/22  8:10a   43.8   43.9   43.8    64   32.4   6.0   ENE   1.00  15.0   ENE   40.3   43.1   39.6   36.1  30.210  0.00  0.00    15     0.22     16     0.0  0.00   0.0   0.147   0.000   69.8    45   47.5   67.7   8.45  .0749    0.000   204    7    100.0   10 
 1/25/22  8:20a   44.4   44.4   43.8    63   32.6   7.0   ENE   1.17  18.0   NNE   40.5   43.7   39.8   36.3  30.213  0.00  0.00    18     0.26     19     0.0  0.00   0.0   0.143   0.000   69.8    45   47.5   67.7   8.45  .0749    0.000   204    7    100.0   10 
 1/25/22  8:30a   44.5   44.5   44.4    62   32.3   6.0   ENE   1.00  19.0   ENE   41.1   43.7   40.3   36.9  30.209  0.00  0.00    20     0.29     21     0.0  0.00   0.0   0.142   0.000   69.7    45   47.4   67.6   8.46  .0749    0.000   201    7    100.0   10 
 1/25/22  8:40a   44.8   44.8   44.5    61   32.2   7.0   ENE   1.17  16.0     E   41.0   44.0   40.2   36.8  30.213  0.00  0.00    22     0.32     23     0.0  0.00   0.0   0.140   0.000   69.7    45   47.4   67.6   8.46  .0749    0.000   201    7    100.0   10 
 1/25/22  8:50a   45.1   45.2   44.8    61   32.4   7.0   ENE   1.17  14.0     E   41.3   44.3   40.5   37.2  30.211  0.00  0.00    24     0.34     25     0.0  0.00   0.0   0.138   0.000   69.7    45   47.4   67.6   8.46  .0749    0.000   203    7    100.0   10 
 1/25/22  9:00a   45.7   45.7   45.1    59   32.2   8.0   ENE   1.33  15.0     E   41.4   44.9   40.6   39.5  30.210  0.00  0.00    26     0.37     26     0.0  0.00   0.0   0.134   0.000   69.8    45   47.5   67.7   8.45  .0749    0.002   203    7    100.0   10 
 1/25/22  9:10a   46.3   46.3   45.8    58   32.3  11.0   ENE   1.83  19.0     E   40.5   45.4   39.6   42.8  30.212  0.00  0.00   171     2.45    209     0.0  0.00   0.0   0.130   0.000   69.8    45   47.5   67.7   8.45  .0749    0.000   203    7    100.0   10 
 1/25/22  9:20a   46.6   46.6   46.3    57   32.2  10.0   ENE   1.67  19.0     E   41.3   45.7   40.4   45.6  30.207  0.00  0.00   225     3.23    239     0.0  0.00   0.0   0.128   0.000   69.9    45   47.6   67.7   8.45  .0748    0.000   203    7    100.0   10 
 1/25/22  9:30a   46.9   46.9   46.5    57   32.4   9.0   ENE   1.50  23.0   ENE   42.2   46.0   41.3   47.3  30.206  0.00  0.00   248     3.56    258     0.0  0.00   0.0   0.126   0.000   70.0    45   47.7   67.8   8.45  .0748    0.000   204    7    100.0   10 
 1/25/22  9:40a   47.7   47.7   46.8    55   32.3  12.0   ENE   2.00  25.0    NE   41.7   46.7   40.7   46.7  30.206  0.00  0.00   271     3.88    281     0.4  0.03   0.5   0.120   0.000   70.1    45   47.8   67.9   8.45  .0748    0.000   203    7    100.0   10 
 1/25/22  9:50a   48.6   48.6   47.7    53   32.2  12.0   ENE   2.00  19.0     E   42.7   47.5   41.6   48.2  30.205  0.00  0.00   293     4.20    302     0.5  0.04   0.6   0.114   0.000   70.1    44   47.2   67.8   8.35  .0748    0.000   201    7    100.0   10 
 1/25/22 10:00a   49.2   49.2   48.6    53   32.8  13.0   ENE   2.17  23.0     E   42.9   48.1   41.8   48.6  30.209  0.00  0.00   316     4.53    323     0.6  0.04   0.7   0.110   0.000   70.2    44   47.3   68.0   8.35  .0748    0.007   203    7    100.0   10 
 1/25/22 10:10a   49.8   49.8   49.2    52   32.9  13.0   ENE   2.17  22.0     E   43.7   48.7   42.6   49.9  30.204  0.00  0.00   337     4.83    345     0.7  0.05   0.7   0.106   0.000   70.2    44   47.3   68.0   8.35  .0748    0.000   205    7    100.0   10 
 1/25/22 10:20a   50.6   50.6   49.8    49   32.1  13.0   ENE   2.17  23.0     E   44.6   49.3   43.3   50.9  30.201  0.00  0.00   354     5.07    362     0.8  0.06   0.8   0.100   0.000   70.1    44   47.2   67.8   8.35  .0748    0.000   202    7    100.0   10 
 1/25/22 10:30a   50.9   51.0   50.6    50   32.9  12.0     E   2.00  19.0     E   45.3   49.6   44.0   52.2  30.202  0.00  0.00   371     5.32    383     0.9  0.06   0.9   0.098   0.000   70.1    44   47.2   67.8   8.35  .0748    0.000   203    7    100.0   10 
 1/25/22 10:40a   51.3   51.3   51.0    50   33.3  12.0     E   2.00  22.0   ENE   45.8   49.9   44.4   52.9  30.202  0.00  0.00   387     5.55    392     1.0  0.07   1.0   0.095   0.000   70.2    44   47.3   68.0   8.35  .0748    0.000   201    7    100.0   10 
 1/25/22 10:50a   51.6   51.6   51.4    49   33.0  11.0     E   1.83  19.0     E   46.6   50.1   45.1   54.1  30.205  0.00  0.00   404     5.79    417     1.0  0.07   1.1   0.093   0.000   70.3    44   47.3   68.1   8.34  .0748    0.000   202    7    100.0   10 
 1/25/22 11:00a   52.2   52.2   51.5    49   33.6   9.0   ENE   1.50  19.0    NE   48.4   50.6   46.8   56.8  30.200  0.00  0.00   419     6.01    427     1.1  0.08   1.2   0.089   0.000   70.4    44   47.4   68.2   8.34  .0747    0.011   204    7    100.0   10 
 1/25/22 11:10a   52.8   52.8   52.1    47   33.1   9.0     E   1.50  18.0     E   49.2   51.1   47.5   57.6  30.203  0.00  0.00   432     6.19    439     1.2  0.09   1.2   0.085   0.000   70.5    44   47.5   68.4   8.34  .0747    0.000   204    7    100.0   10 
 1/25/22 11:20a   53.4   53.4   52.8    47   33.7   8.0   ENE   1.33  16.0   ENE   50.6   51.6   48.8   59.6  30.202  0.00  0.00   445     6.38    450     1.3  0.09   1.3   0.081   0.000   70.6    44   47.6   68.5   8.34  .0747    0.000   203    7    100.0   10 
 1/25/22 11:30a   54.2   54.2   53.4    45   33.3   7.0   ENE   1.17  15.0   ENE   52.2   52.2   50.2   61.1  30.203  0.00  0.00   437     6.26    443     1.3  0.09   1.3   0.075   0.000   70.6    44   47.6   68.5   8.34  .0747    0.000   204    7    100.0   10 
 1/25/22 11:40a   54.4   54.4   54.1    45   33.5   8.0     E   1.33  19.0     E   51.8   52.4   49.8   60.3  30.199  0.00  0.00   445     6.38    450     1.3  0.09   1.3   0.074   0.000   70.6    44   47.6   68.5   8.34  .0747    0.000   204    7    100.0   10 
 1/25/22 11:50a   54.8   54.8   54.4    44   33.3   9.0     E   1.50  17.0     E   51.6   52.7   49.5   59.9  30.196  0.00  0.00   457     6.55    468     1.4  0.10   1.4   0.071   0.000   70.6    44   47.6   68.5   8.34  .0747    0.000   202    7    100.0   10 
 1/25/22 12:00p   55.5   55.5   54.8    43   33.3   9.0   ENE   1.50  17.0     E   52.4   53.3   50.2   60.9  30.194  0.00  0.00   468     6.71    469     1.4  0.10   1.4   0.066   0.000   70.6    44   47.6   68.5   8.34  .0747    0.012   203    7    100.0   10 
 1/25/22 12:10p   56.2   56.2   55.5    44   34.6   7.0   ENE   1.17  14.0   ESE   54.6   53.9   52.3   63.9  30.192  0.00  0.00   468     6.71    471     1.5  0.11   1.5   0.061   0.000   70.6    44   47.6   68.5   8.34  .0747    0.000   203    7    100.0   10 
 1/25/22 12:20p   56.8   56.8   56.2    43   34.5   7.0   ENE   1.17  17.0   ENE   55.4   54.5   53.1   64.8  30.185  0.00  0.00   470     6.74    473     1.5  0.11   1.5   0.057   0.000   70.6    44   47.6   68.5   8.34  .0747    0.000   202    7    100.0   10 
 1/25/22 12:30p   57.3   57.3   56.8    43   35.0   7.0   ENE   1.17  15.0   ESE   56.0   55.0   53.7   65.5  30.179  0.00  0.00   472     6.77    476     1.5  0.11   1.5   0.053   0.000   70.6    44   47.6   68.5   8.34  .0747    0.000   204    7    100.0   10 
 1/25/22 12:40p   57.7   57.7   57.3    42   34.7   9.0   ENE   1.50  15.0     E   54.9   55.3   52.5   63.5  30.174  0.00  0.00   472     6.77    475     1.5  0.11   1.5   0.051   0.000   70.6    44   47.6   68.5   8.34  .0746    0.000   205    7    100.0   10 
 1/25/22 12:50p   58.4   58.4   57.7    41   34.8   8.0   ENE   1.33  15.0     E   56.6   55.8   54.0   65.3  30.168  0.00  0.00   463     6.64    469     1.5  0.11   1.5   0.046   0.000   70.6    44   47.6   68.5   8.34  .0746    0.000   201    7    100.0   10 
 1/25/22  1:00p   58.9   58.9   58.4    41   35.2   8.0   ENE   1.33  15.0     E   57.2   56.3   54.6   66.2  30.153  0.00  0.00   464     6.65    466     1.5  0.11   1.5   0.042   0.000   70.6    44   47.6   68.5   8.34  .0746    0.013   204    7    100.0   10 
 1/25/22  1:10p   59.2   59.2   58.8    41   35.5   9.0   ENE   1.50  16.0     E   56.7   56.6   54.1   65.2  30.150  0.00  0.00   459     6.58    462     1.4  0.10   1.4   0.040   0.000   70.6    44   47.6   68.5   8.34  .0746    0.000   203    7    100.0   10 
 1/25/22  1:20p   59.8   59.8   59.2    40   35.4   9.0   ENE   1.50  18.0   ENE   57.5   57.1   54.8   65.9  30.144  0.00  0.00   452     6.48    455     1.4  0.10   1.4   0.036   0.000   70.6    44   47.6   68.5   8.34  .0746    0.000   205    7    100.0   10 
 1/25/22  1:30p   60.3   60.3   59.8    39   35.2   8.0   ENE   1.33  15.0     E   58.9   57.5   56.1   67.7  30.145  0.00  0.00   443     6.35    446     1.3  0.09   1.4   0.033   0.000   70.6    44   47.6   68.5   8.34  .0746    0.000   202    7    100.0   10 
 1/25/22  1:40p   60.4   60.5   60.2    39   35.3  10.0   ENE   1.67  16.0   ENE   57.4   57.6   54.6   65.4  30.133  0.00  0.00   434     6.22    438     1.3  0.09   1.3   0.032   0.000   70.6    44   47.6   68.5   8.34  .0745    0.000   203    7    100.0   10 
 1/25/22  1:50p   60.8   60.8   60.4    41   36.9   8.0   ENE   1.33  15.0     E   59.5   58.2   56.9   68.5  30.138  0.00  0.00   423     6.06    429     1.2  0.09   1.3   0.029   0.000   70.7    44   47.7   68.6   8.34  .0745    0.000   202    7    100.0   10 
 1/25/22  2:00p   61.0   61.2   60.8    38   35.2   9.0   ENE   1.50  17.0   ENE   58.9   58.1   56.0   66.9  30.135  0.00  0.00   411     5.89    415     1.2  0.09   1.2   0.028   0.000   70.7    44   47.7   68.6   8.34  .0745    0.013   205    7    100.0   10 
 1/25/22  2:10p   61.2   61.3   60.9    38   35.4   8.0   ENE   1.33  16.0     E   59.9   58.3   57.0   68.1  30.135  0.00  0.00   398     5.71    406     1.1  0.08   1.1   0.026   0.000   70.6    44   47.6   68.5   8.34  .0745    0.000   204    7    100.0   10 
 1/25/22  2:20p   61.8   61.8   61.2    37   35.2   8.0   ENE   1.33  13.0   ENE   60.7   58.8   57.7   68.5  30.137  0.00  0.00   382     5.48    390     1.0  0.07   1.0   0.022   0.000   70.7    44   47.7   68.6   8.34  .0745    0.000   203    7    100.0   10 
 1/25/22  2:30p   62.2   62.3   61.8    37   35.6   7.0     E   1.17  16.0   ESE   61.9   59.2   58.9   69.9  30.136  0.00  0.00   365     5.23    373     0.9  0.06   1.0   0.019   0.000   70.7    44   47.7   68.6   8.34  .0745    0.000   204    7    100.0   10 
 1/25/22  2:40p   63.1   63.1   62.2    37   36.4   5.0   ENE   0.83  11.0   ENE   63.1   60.1   60.1   70.9  30.133  0.00  0.00   346     4.96    355     0.8  0.06   0.9   0.013   0.000   70.7    44   47.7   68.6   8.34  .0745    0.000   204    7    100.0   10 
 1/25/22  2:50p   63.3   63.3   63.0    36   35.9   5.0     E   0.83  11.0    NE   63.3   60.2   60.2   70.6  30.136  0.00  0.00   329     4.72    346     0.8  0.06   0.8   0.012   0.000   70.9    44   47.9   68.9   8.33  .0745    0.000   203    7    100.0   10 
 1/25/22  3:00p   63.7   63.8   63.2    37   36.9   4.0   ENE   0.67  11.0   ENE   63.7   60.7   60.7   70.5  30.137  0.00  0.00   306     4.39    315     0.7  0.05   0.7   0.009   0.000   71.1    44   48.1   69.1   8.33  .0745    0.011   202    7    100.0   10 
 1/25/22  3:10p   63.8   63.9   63.6    37   37.0   4.0   ENE   0.67  11.0   ENE   63.8   60.8   60.8   69.9  30.141  0.00  0.00   280     4.01    290     0.6  0.04   0.6   0.008   0.000   71.2    44   48.2   69.3   8.33  .0745    0.000   204    7    100.0   10 
 1/25/22  3:20p   64.3   64.3   63.7    36   36.8   3.0   ENE   0.50   9.0   ENE   64.3   61.2   61.2   63.1  30.142  0.00  0.00   261     3.74    269     0.5  0.04   0.5   0.005   0.000   71.2    44   48.2   69.3   8.33  .0745    0.000   202    7    100.0   10 
 1/25/22  3:30p   64.3   64.3   64.1    36   36.8   3.0    NE   0.50  12.0   ENE   64.3   61.2   61.2   62.5  30.143  0.00  0.00   232     3.33    243     0.2  0.01   0.5   0.005   0.000   71.2    44   48.2   69.3   8.33  .0745    0.000   203    7    100.0   10 
 1/25/22  3:40p   63.0   64.2   63.0    36   35.6   5.0    NE   0.83  12.0    NE   63.0   59.9   59.9   60.4  30.139  0.00  0.00   197     2.82    216     0.0  0.00   0.0   0.014   0.000   71.2    44   48.2   69.3   8.33  .0745    0.000   203    7    100.0   10 
 1/25/22  3:50p   62.4   63.2   62.4    37   35.8   4.0   ENE   0.67  11.0   ENE   62.4   59.4   59.4   58.7  30.133  0.00  0.00   141     2.02    169     0.0  0.00   0.0   0.018   0.000   71.4    44   48.3   69.6   8.32  .0744    0.000   204    7    100.0   10 
 1/25/22  4:00p   61.5   62.5   61.5    37   35.0   5.0   ENE   0.83  12.0    NE   61.5   58.5   58.5   57.2  30.125  0.00  0.00   116     1.66    135     0.0  0.00   0.0   0.024   0.000   71.5    44   48.4   69.8   8.32  .0744    0.007   203    7    100.0   10 
 1/25/22  4:10p   61.3   61.6   61.3    37   34.8   6.0   ENE   1.00  12.0     E   61.2   58.3   58.2   56.9  30.119  0.00  0.00   113     1.62    128     0.0  0.00   0.0   0.026   0.000   71.6    44   48.5   69.9   8.32  .0743    0.000   202    7    100.0   10 
 1/25/22  4:20p   60.8   61.3   60.8    37   34.3   7.0   ENE   1.17  16.0     E   60.2   57.8   57.2   55.2  30.113  0.00  0.00    82     1.18     95     0.0  0.00   0.0   0.029   0.000   71.5    44   48.4   69.8   8.32  .0743    0.000   202    7    100.0   10 
 1/25/22  4:30p   59.8   60.8   59.8    39   34.8   9.0   ENE   1.50  15.0   ENE   57.5   57.0   54.7   52.4  30.115  0.00  0.00    57     0.82     69     0.0  0.00   0.0   0.036   0.000   71.5    44   48.4   69.8   8.32  .0743    0.000   205    7    100.0   10 
 1/25/22  4:40p   58.9   59.8   58.9    41   35.2   9.0   ENE   1.50  15.0   ENE   56.4   56.3   53.8   51.1  30.116  0.00  0.00    35     0.50     44     0.0  0.00   0.0   0.042   0.000   71.4    44   48.3   69.6   8.32  .0744    0.000   203    7    100.0   10 
 1/25/22  4:50p   58.0   58.9   58.0    43   35.6   8.0   ENE   1.33  15.0     E   56.1   55.6   53.7   50.6  30.117  0.00  0.00    20     0.29     25     0.0  0.00   0.0   0.049   0.000   71.4    44   48.3   69.6   8.32  .0744    0.000   204    7    100.0   10 
 1/25/22  5:00p   57.0   58.0   57.0    44   35.3   9.0   ENE   1.50  16.0   ENE   54.1   54.7   51.8   48.7  30.111  0.00  0.00    14     0.20     16     0.0  0.00   0.0   0.056   0.000   71.3    44   48.3   69.5   8.32  .0744    0.005   203    7    100.0   10 
 1/25/22  5:10p   56.1   57.0   56.1    45   35.0   9.0   ENE   1.50  15.0   ESE   53.1   53.9   50.9   47.7  30.111  0.00  0.00    10     0.14     12     0.0  0.00   0.0   0.062   0.000   71.3    44   48.3   69.5   8.32  .0744    0.000   204    7    100.0   10 
 1/25/22  5:20p   55.4   56.1   55.4    46   34.9   9.0   ENE   1.50  15.0     E   52.3   53.3   50.2   46.8  30.112  0.00  0.00     5     0.07      7     0.0  0.00   0.0   0.067   0.000   71.2    44   48.2   69.3   8.33  .0744    0.000   202    7    100.0   10 
 1/25/22  5:30p   54.6   55.4   54.6    46   34.2   8.0     E   1.33  16.0     E   52.0   52.6   50.0   46.4  30.105  0.00  0.00     0     0.00      0     0.0  0.00   0.0   0.072   0.000   71.2    44   48.2   69.3   8.33  .0744    0.000   203    7    100.0   10 
 1/25/22  5:40p   53.7   54.5   53.7    46   33.4   9.0     E   1.50  15.0     E   50.2   51.8   48.3   44.8  30.104  0.00  0.00     0     0.00      0     0.0  0.00   0.0   0.078   0.000   71.1    44   48.1   69.1   8.33  .0744    0.000   203    7    100.0   10 
 1/25/22  5:50p   53.1   53.7   53.1    46   32.8   9.0     E   1.50  14.0   ENE   49.5   51.3   47.7   44.2  30.100  0.00  0.00     0     0.00      0     0.0  0.00   0.0   0.083   0.000   71.1    44   48.1   69.1   8.33  .0744    0.000   204    7    100.0   10 
 1/25/22  6:00p   52.7   53.1   52.7    46   32.5  10.0   ENE   1.67  16.0   ENE   48.4   51.0   46.7   43.4  30.096  0.00  0.00     0     0.00      0     0.0  0.00   0.0   0.085   0.000   71.1    44   48.1   69.1   8.33  .0744    0.004   203    7    100.0   10 
 1/25/22  6:10p   52.2   52.7   52.2    47   32.6  10.0   ENE   1.67  16.0     E   47.8   50.6   46.2   42.9  30.102  0.00  0.00     0     0.00      0     0.0  0.00   0.0   0.089   0.000   71.2    44   48.2   69.3   8.33  .0744    0.000   201    7    100.0   10 
 1/25/22  6:20p   52.3   52.3   52.1    45   31.6  10.0   ENE   1.67  16.0     E   48.0   50.6   46.3   42.9  30.103  0.00  0.00     0     0.00      0     0.0  0.00   0.0   0.088   0.000   71.3    44   48.3   69.5   8.32  .0743    0.000   204    7    100.0   10 
 1/25/22  6:30p   52.4   52.5   52.3    44   31.1  10.0     E   1.67  19.0     E   48.1   50.6   46.3   42.9  30.099  0.00  0.00     0     0.00      0     0.0  0.00   0.0   0.087   0.000   71.4    44   48.3   69.6   8.32  .0743    0.000   200    7    100.0   10 
 1/25/22  6:40p   52.2   52.5   52.2    45   31.5  10.0     E   1.67  16.0   ESE   47.8   50.5   46.1   42.7  30.099  0.00  0.00     0     0.00      0     0.0  0.00   0.0   0.089   0.000   71.4    44   48.3   69.6   8.32  .0743    0.000   203    7    100.0   10 
 1/25/22  6:50p   51.7   52.2   51.7    46   31.6  10.0     E   1.67  16.0   ENE   47.3   50.1   45.7   42.3  30.107  0.00  0.00     0     0.00      0     0.0  0.00   0.0   0.092   0.000   71.4    44   48.3   69.6   8.32  .0743    0.000   201    7    100.0   10 
 1/25/22  7:00p   51.4   51.8   51.4    47   31.8  10.0   ENE   1.67  18.0   ENE   46.9   49.9   45.4   42.0  30.107  0.00  0.00     0     0.00      0     0.0  0.00   0.0   0.094   0.000   71.4    44   48.3   69.6   8.32  .0743    0.004   202    7    100.0   10 
 1/25/22  7:10p   51.3   51.4   51.1    47   31.7   8.0     E   1.33  16.0   ENE   48.1   49.8   46.6   42.9  30.112  0.00  0.00     0     0.00      0     0.0  0.00   0.0   0.095   0.000   71.4    44   48.3   69.6   8.32  .0744    0.000   205    7    100.0   10 
 1/25/22  7:20p   51.0   51.3   51.0    47   31.5   7.0     E   1.17  14.0     E   48.4   49.6   47.0   43.2  30.113  0.00  0.00     0     0.00      0     0.0  0.00   0.0   0.097   0.000   71.3    44   48.3   69.5   8.32  .0744    0.000   203    7    100.0   10 
 1/25/22  7:30p   50.6   51.0   50.6    47   31.1   5.0     E   0.83  11.0   ENE   48.9   49.2   47.5   43.6  30.126  0.00  0.00     0     0.00      0     0.0  0.00   0.0   0.100   0.000   71.4    44   48.3   69.6   8.32  .0744    0.000   204    7    100.0   10 
 1/25/22  7:40p   50.8   51.0   50.6    47   31.3   4.0   ENE   0.67  10.0     E   49.8   49.4   48.4   44.5  30.134  0.00  0.00     0     0.00      0     0.0  0.00   0.0   0.099   0.000   71.4    44   48.3   69.6   8.32  .0744    0.000   204    7    100.0   10 
 1/25/22  7:50p   50.8   50.9   50.6    45   30.2   8.0   ENE   1.33  14.0   ENE   47.5   49.3   46.0   42.3  30.136  0.00  0.00     0     0.00      0     0.0  0.00   0.0   0.099   0.000   71.4    44   48.3   69.6   8.32  .0744    0.000   204    7    100.0   10 
 1/25/22  8:00p   50.9   51.0   50.8    44   29.7   6.0     E   1.00  11.0   ENE   48.8   49.4   47.3   43.3  30.132  0.00  0.00     0     0.00      0     0.0  0.00   0.0   0.098   0.000   71.3    44   48.3   69.5   8.32  .0744    0.003   203    7    100.0   10 
 1/25/22  8:10p   50.6   50.9   50.6    45   30.0   6.0     E   1.00  12.0     E   48.4   49.2   47.0   43.1  30.130  0.00  0.00     0     0.00      0     0.0  0.00   0.0   0.100   0.000   71.3    44   48.3   69.5   8.32  .0744    0.000   204    7    100.0   10 
 1/25/22  8:20p   49.6   50.6   49.6    48   30.7   8.0     E   1.33  14.0   ENE   46.0   48.4   44.8   41.1  30.124  0.00  0.00     0     0.00      0     0.0  0.00   0.0   0.107   0.000   71.2    44   48.2   69.3   8.33  .0744    0.000   205    7    100.0   10 
 1/25/22  8:30p   49.4   49.6   49.4    48   30.5  10.0     E   1.67  18.0   ESE   44.6   48.2   43.4   40.0  30.116  0.00  0.00     0     0.00      0     0.0  0.00   0.0   0.108   0.000   71.1    44   48.1   69.1   8.33  .0744    0.000   204    7    100.0   10 
 1/25/22  8:40p   49.3   49.5   49.2    48   30.4  10.0     E   1.67  18.0     E   44.5   48.1   43.3   39.9  30.110  0.00  0.00     0     0.00      0     0.0  0.00   0.0   0.109   0.000   71.0    45   48.6   69.1   8.45  .0744    0.000   204    7    100.0   10 
 1/25/22  8:50p   48.9   49.2   48.9    49   30.6  10.0     E   1.67  18.0     E   44.0   47.7   42.8   39.4  30.109  0.00  0.00     0     0.00      0     0.0  0.00   0.0   0.112   0.000   71.0    45   48.6   69.1   8.45  .0744    0.000   203    7    100.0   10 
 1/25/22  9:00p   48.8   48.9   48.7    48   30.0  11.0   ENE   1.83  18.0   ENE   43.4   47.6   42.2   38.8  30.110  0.00  0.00     0     0.00      0     0.0  0.00   0.0   0.113   0.000   70.9    45   48.5   69.0   8.45  .0744    0.004   205    7    100.0   10 
 1/25/22  9:10p   48.6   48.8   48.6    49   30.3  11.0     E   1.83  18.0     E   43.2   47.4   42.0   38.7  30.109  0.00  0.00     0     0.00      0     0.0  0.00   0.0   0.114   0.000   70.8    45   48.4   68.8   8.45  .0744    0.000   200    7    100.0   10 
 1/25/22  9:20p   48.7   48.7   48.6    47   29.4  10.0     E   1.67  18.0     E   43.8   47.4   42.5   39.0  30.112  0.00  0.00     0     0.00      0     0.0  0.00   0.0   0.113   0.000   70.8    45   48.4   68.8   8.45  .0744    0.000   202    7    100.0   10 
Email: AdamSPAM@StormwatchersRetreat.com (To send me email remove the word 'SPAM' from my email address.)